createdAt,value
2017-08-16T00:00:40.053Z,20.40
2017-08-16T00:03:11.083Z,20.50
2017-08-16T00:05:42.073Z,20.50
2017-08-16T00:08:12.852Z,20.60
2017-08-16T00:10:44.833Z,20.80
2017-08-16T00:13:16.681Z,20.70
2017-08-16T00:15:47.635Z,20.70
2017-08-16T00:18:18.265Z,20.50
2017-08-16T00:20:49.628Z,20.30
2017-08-16T00:23:20.763Z,20.10
2017-08-16T00:25:51.876Z,20.20
2017-08-16T00:28:22.588Z,20.30
2017-08-16T00:30:54.249Z,20.40
2017-08-16T00:33:24.702Z,20.40
2017-08-16T00:35:55.424Z,20.60
2017-08-16T00:38:27.320Z,20.50
2017-08-16T00:40:58.466Z,20.60
2017-08-16T00:43:29.264Z,20.50
2017-08-16T00:46:00.228Z,20.50
2017-08-16T00:48:31.296Z,20.20
2017-08-16T00:51:02.517Z,20.00
2017-08-16T00:53:32.978Z,19.80
2017-08-16T00:56:03.872Z,19.80
2017-08-16T00:58:34.456Z,19.90
2017-08-16T01:01:05.213Z,19.90
2017-08-16T01:03:36.061Z,19.90
2017-08-16T01:06:07.149Z,19.80
2017-08-16T01:08:38.096Z,19.70
2017-08-16T01:11:09.931Z,19.80
2017-08-16T01:13:40.539Z,20.00
2017-08-16T01:16:11.522Z,20.10
2017-08-16T01:18:42.180Z,20.30
2017-08-16T01:21:12.764Z,20.40
2017-08-16T01:23:42.904Z,20.30
2017-08-16T01:26:13.823Z,20.40
2017-08-16T01:28:44.349Z,20.40
2017-08-16T01:31:15.568Z,20.40
2017-08-16T01:33:46.253Z,20.60
2017-08-16T01:36:17.194Z,20.50
2017-08-16T01:38:47.716Z,20.50
2017-08-16T01:41:20.278Z,20.70
2017-08-16T01:43:51.029Z,20.80
2017-08-16T01:46:22.261Z,20.60
2017-08-16T01:48:53.406Z,20.80
2017-08-16T01:51:24.756Z,20.90
2017-08-16T01:53:55.660Z,20.80
2017-08-16T01:56:28.300Z,20.90
2017-08-16T01:58:59.377Z,20.80
2017-08-16T02:01:30.249Z,21.00
2017-08-16T02:04:00.996Z,20.80
2017-08-16T02:06:31.744Z,20.80
2017-08-16T02:09:02.297Z,20.80
2017-08-16T02:11:33.792Z,20.70
2017-08-16T02:14:04.479Z,20.50
2017-08-16T02:16:35.350Z,20.30
2017-08-16T02:19:05.879Z,20.00
2017-08-16T02:21:37.558Z,19.70
2017-08-16T02:24:08.562Z,19.50
2017-08-16T02:26:40.660Z,19.60
2017-08-16T02:29:11.423Z,19.60
2017-08-16T02:31:42.437Z,19.50
2017-08-16T02:34:13.394Z,19.40
2017-08-16T02:36:45.188Z,18.80
2017-08-16T02:39:16.150Z,18.70
2017-08-16T02:41:47.055Z,18.90
2017-08-16T02:44:17.797Z,19.10
2017-08-16T02:46:48.444Z,19.20
2017-08-16T02:49:18.992Z,19.30
2017-08-16T02:51:49.994Z,19.20
2017-08-16T02:54:20.478Z,19.20
2017-08-16T02:56:52.571Z,19.00
2017-08-16T02:59:23.421Z,19.00
2017-08-16T03:01:54.223Z,18.70
2017-08-16T03:04:24.705Z,18.50
2017-08-16T03:06:55.626Z,18.50
2017-08-16T03:09:27.353Z,18.20
2017-08-16T03:11:59.085Z,18.00
2017-08-16T03:14:31.088Z,17.90
2017-08-16T03:17:01.569Z,17.90
2017-08-16T03:19:32.697Z,17.90
2017-08-16T03:22:04.083Z,18.30
2017-08-16T03:24:34.956Z,18.30
2017-08-16T03:27:05.821Z,18.40
2017-08-16T03:29:36.412Z,18.30
2017-08-16T03:32:07.202Z,18.50
2017-08-16T03:34:38.044Z,18.60
2017-08-16T03:37:08.560Z,18.60
2017-08-16T03:39:39.169Z,18.80
2017-08-16T03:42:10.025Z,19.00
2017-08-16T03:44:40.561Z,18.90
2017-08-16T03:47:11.485Z,18.60
2017-08-16T03:49:42.135Z,18.80
2017-08-16T03:52:17.042Z,18.90
2017-08-16T03:54:47.324Z,19.00
2017-08-16T03:57:18.434Z,18.70
2017-08-16T03:59:48.859Z,18.80
2017-08-16T04:02:19.469Z,19.00
2017-08-16T04:04:50.233Z,18.90
2017-08-16T04:07:20.668Z,18.70
2017-08-16T04:09:51.105Z,18.50
2017-08-16T04:12:26.202Z,18.60
2017-08-16T04:15:02.850Z,18.80
2017-08-16T04:17:33.754Z,18.80
2017-08-16T04:20:04.194Z,18.70
2017-08-16T04:22:44.853Z,18.60
2017-08-16T04:25:15.237Z,18.60
2017-08-16T04:27:46.078Z,18.70
2017-08-16T04:30:16.385Z,18.90
2017-08-16T04:32:46.828Z,18.70
2017-08-16T04:35:18.134Z,18.50
2017-08-16T04:37:48.526Z,18.70
2017-08-16T04:40:18.845Z,18.90
2017-08-16T04:42:50.073Z,19.00
2017-08-16T04:45:20.569Z,18.80
2017-08-16T04:47:50.748Z,18.50
2017-08-16T04:50:20.928Z,18.60
2017-08-16T04:52:51.573Z,18.80
2017-08-16T04:55:22.146Z,19.00
2017-08-16T04:57:52.255Z,19.20
2017-08-16T05:00:22.866Z,19.30
2017-08-16T05:03:02.480Z,19.30
2017-08-16T05:05:32.942Z,19.40
2017-08-16T05:08:03.049Z,19.40
2017-08-16T05:10:33.073Z,19.50
2017-08-16T05:13:04.043Z,19.60
2017-08-16T05:15:34.192Z,19.70
2017-08-16T05:18:10.446Z,19.60
2017-08-16T05:20:40.537Z,19.40
2017-08-16T05:23:10.560Z,19.40
2017-08-16T05:25:41.284Z,19.20
2017-08-16T05:28:11.748Z,19.40
2017-08-16T05:30:41.999Z,19.10
2017-08-16T05:33:12.336Z,19.20
2017-08-16T05:35:42.904Z,19.20
2017-08-16T05:38:13.353Z,19.00
2017-08-16T05:40:43.572Z,19.30
2017-08-16T05:43:13.696Z,19.50
2017-08-16T05:45:44.057Z,19.60
2017-08-16T05:48:14.393Z,19.60
2017-08-16T05:50:44.458Z,19.70
2017-08-16T05:53:14.767Z,20.00
2017-08-16T05:55:45.197Z,20.20
2017-08-16T05:58:15.230Z,20.30
2017-08-16T06:00:45.664Z,20.40
2017-08-16T06:03:15.761Z,20.10
2017-08-16T06:05:45.841Z,20.20
2017-08-16T06:08:16.132Z,19.50
2017-08-16T06:10:46.130Z,19.20
2017-08-16T06:13:16.789Z,19.20
2017-08-16T06:15:47.104Z,19.30
2017-08-16T06:18:17.189Z,19.20
2017-08-16T06:20:47.475Z,18.90
2017-08-16T06:23:17.797Z,18.70
2017-08-16T06:25:47.858Z,18.70
2017-08-16T06:28:18.107Z,18.60
2017-08-16T06:30:48.451Z,18.70
2017-08-16T06:33:18.896Z,18.90
2017-08-16T06:35:49.284Z,19.50
2017-08-16T06:38:19.863Z,19.50
2017-08-16T06:40:50.764Z,19.90
2017-08-16T06:43:21.286Z,20.70
2017-08-16T06:45:51.856Z,20.60
2017-08-16T06:48:22.169Z,20.00
2017-08-16T06:50:53.240Z,19.80
2017-08-16T06:53:23.379Z,20.40
2017-08-16T06:55:53.667Z,21.10
2017-08-16T06:58:24.592Z,20.40
2017-08-16T07:00:54.662Z,20.80
2017-08-16T07:03:24.906Z,21.40
2017-08-16T07:05:55.539Z,21.60
2017-08-16T07:08:25.925Z,21.50
2017-08-16T07:10:56.619Z,21.70
2017-08-16T07:13:27.057Z,21.50
2017-08-16T07:15:57.153Z,21.40
2017-08-16T07:18:27.911Z,21.60
2017-08-16T07:20:58.079Z,21.60
2017-08-16T07:23:28.198Z,21.80
2017-08-16T07:25:58.519Z,21.70
2017-08-16T07:28:28.770Z,21.80
2017-08-16T07:30:59.214Z,21.80
2017-08-16T07:33:29.817Z,21.90
2017-08-16T07:35:59.853Z,21.80
2017-08-16T07:38:29.966Z,21.60
2017-08-16T07:41:00.232Z,21.50
2017-08-16T07:43:30.316Z,21.30
2017-08-16T07:46:00.413Z,21.10
2017-08-16T07:48:30.707Z,20.80
2017-08-16T07:51:00.791Z,20.50
2017-08-16T07:53:35.559Z,20.50
2017-08-16T07:56:05.890Z,20.50
2017-08-16T08:01:15.238Z,20.20
2017-08-16T08:03:45.292Z,19.80
2017-08-16T08:06:15.363Z,20.20
2017-08-16T08:08:45.730Z,20.70
2017-08-16T08:11:15.796Z,21.20
2017-08-16T08:13:46.081Z,21.60
2017-08-16T08:16:16.120Z,22.00
2017-08-16T08:18:46.518Z,21.60
2017-08-16T08:21:16.648Z,21.90
2017-08-16T08:23:46.807Z,21.50
2017-08-16T08:26:17.170Z,22.00
2017-08-16T08:28:47.492Z,22.10
2017-08-16T08:31:17.564Z,22.30
2017-08-16T08:33:47.884Z,22.20
2017-08-16T08:36:17.969Z,22.20
2017-08-16T08:38:48.037Z,21.90
2017-08-16T08:41:18.335Z,21.80
2017-08-16T08:43:48.537Z,21.30
2017-08-16T08:46:18.538Z,21.40
2017-08-16T08:48:48.950Z,21.30
2017-08-16T08:52:43.165Z,21.40
2017-08-16T08:55:13.268Z,21.50
2017-08-16T08:57:43.362Z,21.90
2017-08-16T09:00:13.644Z,22.30
2017-08-16T09:02:43.746Z,22.50
2017-08-16T09:05:13.781Z,22.90
2017-08-16T09:07:43.875Z,23.00
2017-08-16T09:10:14.123Z,23.40
2017-08-16T09:12:44.197Z,23.50
2017-08-16T09:15:14.713Z,23.60
2017-08-16T09:17:44.775Z,24.00
2017-08-16T09:20:15.129Z,23.50
2017-08-16T09:22:45.238Z,24.40
2017-08-16T09:25:16.451Z,25.40
2017-08-16T09:27:46.809Z,25.90
2017-08-16T09:30:18.377Z,26.20
2017-08-16T09:32:48.492Z,25.90
2017-08-16T09:35:19.727Z,26.20
2017-08-16T09:37:49.864Z,26.40
2017-08-16T09:40:20.700Z,26.80
2017-08-16T09:42:50.737Z,26.60
2017-08-16T09:45:20.840Z,26.00
2017-08-16T09:47:50.901Z,25.80
2017-08-16T09:50:21.044Z,26.10
2017-08-16T09:53:06.326Z,25.20
2017-08-16T09:55:36.393Z,25.10
2017-08-16T09:58:06.733Z,25.00
2017-08-16T10:00:38.573Z,25.60
2017-08-16T10:03:09.425Z,25.40
2017-08-16T10:05:39.790Z,25.70
2017-08-16T10:08:09.867Z,25.80
2017-08-16T10:10:40.022Z,25.70
2017-08-16T10:13:10.539Z,25.70
2017-08-16T10:15:40.716Z,25.30
2017-08-16T10:18:11.089Z,25.20
2017-08-16T10:20:41.532Z,24.70
2017-08-16T10:23:11.803Z,24.80
2017-08-16T10:25:41.890Z,24.70
2017-08-16T10:28:12.801Z,24.60
2017-08-16T10:30:42.857Z,25.10
2017-08-16T10:33:14.071Z,25.80
2017-08-16T10:35:44.648Z,26.10
2017-08-16T10:38:15.026Z,26.50
2017-08-16T10:40:45.378Z,25.60
2017-08-16T10:43:15.792Z,26.10
2017-08-16T10:45:45.924Z,27.20
2017-08-16T10:48:16.018Z,27.90
2017-08-16T10:50:46.359Z,27.80
2017-08-16T10:53:16.708Z,26.60
2017-08-16T10:55:47.100Z,25.40
2017-08-16T10:58:17.489Z,24.90
2017-08-16T11:00:47.941Z,25.00
2017-08-16T11:03:18.001Z,25.80
2017-08-16T11:05:48.436Z,26.40
2017-08-16T11:08:18.483Z,26.00
2017-08-16T11:10:48.623Z,25.40
2017-08-16T11:13:19.112Z,26.30
2017-08-16T11:15:49.773Z,27.70
2017-08-16T11:18:20.169Z,28.30
2017-08-16T11:20:50.635Z,29.80
2017-08-16T11:23:20.716Z,29.00
2017-08-16T11:25:50.736Z,27.40
2017-08-16T11:28:21.138Z,26.50
2017-08-16T11:30:51.627Z,26.80
2017-08-16T11:33:21.792Z,27.60
2017-08-16T11:35:51.900Z,27.50
2017-08-16T11:38:22.248Z,28.60
2017-08-16T11:40:52.619Z,29.00
2017-08-16T11:43:22.789Z,27.50
2017-08-16T11:45:52.890Z,26.00
2017-08-16T11:48:23.296Z,25.20
2017-08-16T11:50:53.452Z,24.80
2017-08-16T11:53:23.519Z,24.60
2017-08-16T11:55:54.540Z,24.70
2017-08-16T11:58:24.705Z,24.40
2017-08-16T12:01:10.174Z,24.40
2017-08-16T12:03:40.570Z,24.70
2017-08-16T12:06:10.709Z,24.70
2017-08-16T12:08:40.842Z,24.90
2017-08-16T12:11:11.077Z,24.60
2017-08-16T12:13:41.087Z,24.50
2017-08-16T12:16:11.604Z,24.90
2017-08-16T12:18:41.923Z,25.30
2017-08-16T12:21:12.115Z,25.10
2017-08-16T12:23:42.161Z,25.00
2017-08-16T12:26:12.478Z,25.30
2017-08-16T12:28:50.091Z,24.90
2017-08-16T12:31:30.475Z,24.60
2017-08-16T12:34:01.039Z,24.40
2017-08-16T12:36:31.144Z,24.60
2017-08-16T12:39:01.362Z,24.60
2017-08-16T12:41:31.520Z,24.70
2017-08-16T12:44:01.687Z,24.40
2017-08-16T12:46:31.821Z,24.90
2017-08-16T12:49:02.341Z,25.10
2017-08-16T12:51:32.482Z,25.40
2017-08-16T12:54:02.584Z,25.70
2017-08-16T12:56:33.289Z,25.40
2017-08-16T12:59:04.364Z,24.70
